Time;durP1;ratioP1;P1;durP2;ratioP2;P2;SDS_P1;SDS_P2;PMS_P1;PMS_P2;Temp;Humidity;BMP_temperature;BMP_pressure;BME280_temperature;BME280_humidity;BME280_pressure;Samples;Min_cycle;Max_cycle;Signal;HPM_P1;HPM_P2
2023/08/04 00:01:08;;;;;;;4.30;1.13;;;;;;;13.18;100.00;100466.72;5000441;28;20437;-93
2023/08/04 00:03:34;;;;;;;2.50;1.25;;;;;;;13.09;100.00;100473.34;4992981;28;20034;-92
2023/08/04 00:05:59;;;;;;;3.97;1.20;;;;;;;13.03;100.00;100474.59;4992991;28;20022;-93
2023/08/04 00:08:24;;;;;;;2.63;1.25;;;;;;;12.96;100.00;100472.53;4992959;28;20469;-93
2023/08/04 00:10:50;;;;;;;2.95;1.10;;;;;;;12.90;100.00;100467.72;4992978;28;20029;-93
2023/08/04 00:13:15;;;;;;;2.90;1.13;;;;;;;12.97;100.00;100463.81;4992659;28;20029;-93
2023/08/04 00:15:41;;;;;;;1.80;1.10;;;;;;;12.98;100.00;100473.25;5002492;28;20388;-93
2023/08/04 00:18:06;;;;;;;1.95;1.05;;;;;;;12.97;100.00;100476.75;5012431;28;20120;-94
2023/08/04 00:20:31;;;;;;;3.25;1.45;;;;;;;12.99;100.00;100486.09;5012591;28;20032;-93
2023/08/04 00:22:57;;;;;;;3.08;1.33;;;;;;;12.95;100.00;100476.88;5012376;28;20472;-93
2023/08/04 00:25:22;;;;;;;3.63;1.40;;;;;;;12.97;100.00;100482.78;5013912;28;20026;-92
2023/08/04 00:27:47;;;;;;;3.45;1.20;;;;;;;12.95;100.00;100476.88;5015200;28;20034;-93
2023/08/04 00:30:13;;;;;;;2.22;1.23;;;;;;;12.98;100.00;100481.84;5013830;28;20026;-93
2023/08/04 00:32:38;;;;;;;3.25;1.40;;;;;;;12.94;100.00;100482.97;5015111;28;20157;-93
2023/08/04 00:35:05;;;;;;;7.03;1.20;;;;;;;12.90;100.00;100489.31;5015678;28;20423;-94
2023/08/04 00:37:33;;;;;;;2.17;1.25;;;;;;;12.97;100.00;100484.53;5014374;28;20092;-93
2023/08/04 00:39:59;;;;;;;2.45;1.13;;;;;;;12.93;100.00;100490.88;5016142;28;20061;-94
2023/08/04 00:42:24;;;;;;;5.40;1.52;;;;;;;12.92;100.00;100491.78;5016134;28;20546;-93
2023/08/04 00:44:50;;;;;;;2.75;1.30;;;;;;;12.99;100.00;100493.03;5014274;28;20392;-93
2023/08/04 00:47:15;;;;;;;3.00;1.20;;;;;;;12.96;100.00;100493.25;5015762;28;20053;-93
2023/08/04 00:49:41;;;;;;;3.85;1.38;;;;;;;13.00;100.00;100492.13;5015731;28;20026;-94
2023/08/04 00:52:08;;;;;;;3.65;1.58;;;;;;;12.96;100.00;100491.47;5016031;28;20100;-92
2023/08/04 00:54:34;;;;;;;4.82;1.38;;;;;;;13.05;100.00;100492.63;5014475;28;20032;-92
2023/08/04 00:56:59;;;;;;;2.35;1.55;;;;;;;13.14;100.00;100486.81;5015667;28;20486;-92
2023/08/04 00:59:25;;;;;;;3.17;1.17;;;;;;;13.18;100.00;100493.47;5006566;28;20033;-92
2023/08/04 01:01:50;;;;;;;2.45;1.30;;;;;;;13.24;100.00;100503.44;4995909;28;20030;-93
2023/08/04 01:04:18;;;;;;;2.25;1.15;;;;;;;13.27;100.00;100498.06;4995952;28;20026;-93
2023/08/04 01:06:56;;;;;;;3.30;1.30;;;;;;;13.38;100.00;100499.09;5011193;28;20037;-93
2023/08/04 01:09:27;;;;;;;2.05;1.45;;;;;;;13.38;100.00;100499.09;5010972;28;20022;-93
2023/08/04 01:12:07;;;;;;;7.78;1.67;;;;;;;13.39;100.00;100501.59;4994652;28;20166;-93
2023/08/04 01:14:35;;;;;;;2.50;1.27;;;;;;;13.45;100.00;100508.09;4995173;28;20038;-93
2023/08/04 01:17:25;;;;;;;2.92;1.52;;;;;;;13.57;100.00;100517.63;4996679;28;20037;-92
2023/08/04 01:19:51;;;;;;;5.13;1.60;;;;;;;13.53;100.00;100513.59;5005806;28;20149;-93
2023/08/04 01:22:17;;;;;;;2.60;1.60;;;;;;;13.51;100.00;100515.47;4995477;28;20136;-93
2023/08/04 01:24:42;;;;;;;2.38;1.65;;;;;;;13.49;100.00;100512.16;4995407;28;20095;-93
2023/08/04 01:27:12;;;;;;;2.30;1.33;;;;;;;13.54;100.00;100517.84;4995674;28;20546;-93
2023/08/04 01:29:37;;;;;;;6.70;1.73;;;;;;;13.54;100.00;100520.44;4995115;28;20034;-93
2023/08/04 01:32:03;;;;;;;3.78;1.75;;;;;;;13.55;100.00;100511.72;4994340;28;20602;-93
2023/08/04 01:34:29;;;;;;;1.30;1.20;;;;;;;13.59;100.00;100518.38;4995240;28;20121;-93
2023/08/04 01:36:55;;;;;;;5.90;2.33;;;;;;;13.59;100.00;100520.97;4994110;28;20032;-92
2023/08/04 01:39:20;;;;;;;1.35;1.20;;;;;;;13.56;100.00;100518.59;4995519;28;20031;-94
2023/08/04 01:41:45;;;;;;;3.92;1.70;;;;;;;13.50;100.00;100519.00;4995425;28;20034;-93
2023/08/04 01:44:11;;;;;;;3.30;1.50;;;;;;;13.53;100.00;100523.13;4995184;28;20031;-93
2023/08/04 01:46:36;;;;;;;2.55;1.58;;;;;;;13.50;100.00;100519.00;4995230;28;20265;-93
2023/08/04 01:49:02;;;;;;;2.70;1.60;;;;;;;13.51;100.00;100522.41;4995073;28;20031;-94
2023/08/04 01:51:27;;;;;;;5.05;1.63;;;;;;;13.53;100.00;100513.59;4995416;28;20029;-93
2023/08/04 01:53:52;;;;;;;4.75;1.90;;;;;;;13.51;100.00;100519.81;4993629;28;20036;-93
2023/08/04 01:56:18;;;;;;;6.30;1.90;;;;;;;13.51;100.00;100531.03;4994838;28;20069;-93
2023/08/04 01:58:43;;;;;;;2.67;1.75;;;;;;;13.61;100.00;100524.28;4997450;28;20030;-93
2023/08/04 02:01:08;;;;;;;4.70;1.98;;;;;;;13.63;100.00;100530.19;5010132;28;20062;-93
2023/08/04 02:03:34;;;;;;;2.38;1.50;;;;;;;13.63;100.00;100532.78;4994994;28;20026;-92
2023/08/04 02:06:00;;;;;;;2.72;1.60;;;;;;;13.63;100.00;100539.72;4994839;28;20080;-93
2023/08/04 02:08:25;;;;;;;2.25;1.55;;;;;;;13.58;100.00;100537.47;4994490;28;20365;-92
2023/08/04 02:10:50;;;;;;;1.83;1.50;;;;;;;13.70;100.00;100541.81;4994581;28;20034;-93
2023/08/04 02:13:16;;;;;;;3.38;1.80;;;;;;;13.83;100.00;100543.56;4994695;28;20038;-95
2023/08/04 02:15:42;;;;;;;3.03;1.52;;;;;;;13.73;100.00;100540.78;5004998;28;20049;-92
2023/08/04 02:18:07;;;;;;;8.98;2.05;;;;;;;13.79;100.00;100542.09;5012130;28;20026;-94
2023/08/04 02:20:32;;;;;;;2.60;1.52;;;;;;;13.79;100.00;100547.28;5007524;28;20441;-92
2023/08/04 02:22:58;;;;;;;6.82;2.08;;;;;;;13.77;100.00;100541.38;4994440;28;20105;-92
2023/08/04 02:25:23;;;;;;;1.60;1.33;;;;;;;13.70;100.00;100543.56;4994788;28;20161;-92
2023/08/04 02:27:49;;;;;;;5.22;2.05;;;;;;;13.68;100.00;100543.69;4994416;28;20018;-93
2023/08/04 02:30:14;;;;;;;5.28;1.88;;;;;;;13.64;100.00;100542.22;4994463;28;20023;-92
2023/08/04 02:32:40;;;;;;;3.72;1.70;;;;;;;13.64;100.00;100547.41;4993770;28;20034;-94
2023/08/04 02:35:06;;;;;;;2.08;1.65;;;;;;;13.61;100.00;100546.81;4993242;28;20113;-93
2023/08/04 02:37:31;;;;;;;2.70;1.85;;;;;;;13.62;100.00;100551.03;4994279;28;20023;-94
2023/08/04 02:39:56;;;;;;;4.75;1.63;;;;;;;13.56;100.00;100549.69;4993455;28;20030;-94
2023/08/04 02:42:22;;;;;;;3.55;1.60;;;;;;;13.59;100.00;100549.50;4993037;28;20026;-95
2023/08/04 02:44:53;;;;;;;2.55;1.50;;;;;;;13.65;100.00;100554.25;4994420;28;20145;-94
2023/08/04 02:47:18;;;;;;;3.78;1.50;;;;;;;13.61;100.00;100560.59;4992937;28;20034;-94
2023/08/04 02:49:43;;;;;;;6.13;1.90;;;;;;;13.61;100.00;100558.00;4994225;28;20026;-94
2023/08/04 02:52:14;;;;;;;2.28;1.52;;;;;;;13.63;100.00;100553.53;4993195;28;20065;-94
2023/08/04 02:54:39;;;;;;;3.50;2.15;;;;;;;13.63;100.00;100561.31;5009196;28;20023;-94
2023/08/04 02:57:05;;;;;;;2.65;1.52;;;;;;;13.63;100.00;100557.88;4992781;28;20037;-93
2023/08/04 02:59:30;;;;;;;3.63;1.65;;;;;;;13.66;100.00;100566.28;4994180;28;20113;-94
2023/08/04 03:01:55;;;;;;;5.55;2.10;;;;;;;13.64;100.00;100568.16;4994208;28;20042;-93
2023/08/04 03:04:21;;;;;;;7.80;2.45;;;;;;;13.64;100.00;100562.97;4994470;28;20539;-93
2023/08/04 03:06:46;;;;;;;2.72;1.73;;;;;;;13.72;100.00;100561.63;4994271;28;20030;-93
2023/08/04 03:09:12;;;;;;;4.05;1.65;;;;;;;13.72;100.00;100559.03;4993688;28;20035;-96
2023/08/04 03:11:37;;;;;;;3.75;1.73;;;;;;;13.68;100.00;100564.44;4992557;28;20034;-93
2023/08/04 03:14:02;;;;;;;4.60;1.65;;;;;;;13.69;100.00;100560.88;4992101;28;20034;-93
2023/08/04 03:16:28;;;;;;;2.15;1.27;;;;;;;13.64;100.00;100562.97;4992935;28;20053;-96
2023/08/04 03:18:53;;;;;;;5.55;1.73;;;;;;;13.72;100.00;100569.41;4992947;28;20026;-94
2023/08/04 03:21:18;;;;;;;3.33;1.77;;;;;;;13.73;100.00;100576.22;4993340;28;20069;-93
2023/08/04 03:23:44;;;;;;;2.70;1.55;;;;;;;13.74;100.00;100572.72;4993124;28;20057;-95
2023/08/04 03:26:09;;;;;;;5.95;1.45;;;;;;;13.69;100.00;100575.63;4992908;28;20089;-95
2023/08/04 03:28:34;;;;;;;4.00;1.50;;;;;;;13.74;100.00;100577.91;4993304;28;20484;-93
2023/08/04 03:31:00;;;;;;;3.10;1.77;;;;;;;13.78;100.00;100576.78;4997659;28;20030;-94
2023/08/04 03:33:25;;;;;;;4.22;1.42;;;;;;;13.81;100.00;100584.34;5012313;28;20022;-95
2023/08/04 03:35:50;;;;;;;2.50;1.33;;;;;;;13.87;100.00;100578.72;5012657;28;20442;-94
2023/08/04 03:38:16;;;;;;;2.35;1.02;;;;;;;13.91;100.00;100587.94;5012606;28;20107;-93
2023/08/04 03:40:41;;;;;;;4.97;1.48;;;;;;;13.85;100.00;100590.97;5011358;28;20034;-94
2023/08/04 03:43:07;;;;;;;2.08;1.25;;;;;;;13.72;100.00;100585.78;5011376;28;20025;-96
2023/08/04 03:45:32;;;;;;;3.28;1.60;;;;;;;13.75;100.00;100582.16;5009704;28;20510;-96
2023/08/04 03:47:58;;;;;;;2.58;1.20;;;;;;;13.76;100.00;100583.81;5011257;28;20491;-93
2023/08/04 03:50:25;;;;;;;6.72;1.48;;;;;;;13.80;100.00;100585.25;5012435;28;20369;-96
2023/08/04 03:52:50;;;;;;;3.83;1.50;;;;;;;13.71;100.00;100586.72;5011402;28;20032;-95
2023/08/04 03:55:17;;;;;;;3.40;1.40;;;;;;;13.74;100.00;100596.06;5012201;28;20399;-96
2023/08/04 03:57:42;;;;;;;2.40;1.15;;;;;;;13.74;100.00;100596.88;5012113;28;20032;-96
2023/08/04 04:00:08;;;;;;;4.28;1.42;;;;;;;13.73;100.00;100602.16;5008771;28;20022;-93
2023/08/04 04:02:34;;;;;;;2.00;1.20;;;;;;;13.74;100.00;100598.66;5012101;28;20017;-93
2023/08/04 04:04:59;;;;;;;1.63;1.13;;;;;;;13.73;100.00;100599.56;5012272;28;20484;-94
2023/08/04 04:07:24;;;;;;;3.00;1.30;;;;;;;13.70;100.00;100598.03;5012603;28;20026;-93
2023/08/04 04:09:50;;;;;;;3.63;1.23;;;;;;;13.76;100.00;100601.97;5012368;28;20026;-93
2023/08/04 04:12:15;;;;;;;2.78;1.20;;;;;;;13.75;100.00;100600.31;5012296;28;20026;-93
2023/08/04 04:14:40;;;;;;;2.70;1.40;;;;;;;13.77;100.00;100604.47;5010997;28;20025;-93
2023/08/04 04:17:06;;;;;;;3.67;1.40;;;;;;;13.76;100.00;100604.56;5011865;28;20116;-95
2023/08/04 04:19:31;;;;;;;2.65;1.30;;;;;;;13.69;100.00;100602.38;5010942;28;20508;-93
2023/08/04 04:21:57;;;;;;;5.45;1.20;;;;;;;13.89;100.00;100607.97;5012170;28;20068;-95
2023/08/04 04:24:22;;;;;;;4.40;1.58;;;;;;;13.84;100.00;100599.69;5012066;28;20104;-95
2023/08/04 04:26:47;;;;;;;3.47;1.13;;;;;;;13.84;100.00;100610.06;5010834;28;20033;-93
2023/08/04 04:29:13;;;;;;;1.80;1.20;;;;;;;13.96;100.00;100614.41;5010893;28;20061;-95
2023/08/04 04:31:38;;;;;;;1.77;1.08;;;;;;;13.94;100.00;100615.44;4991636;28;20440;-95
2023/08/04 04:34:04;;;;;;;2.25;0.98;;;;;;;14.08;100.00;100623.13;4992399;28;20026;-92
2023/08/04 04:36:29;;;;;;;3.45;0.93;;;;;;;14.23;100.00;100621.22;4990952;28;20026;-93
2023/08/04 04:38:54;;;;;;;4.82;1.00;;;;;;;14.08;100.00;100623.94;4992194;28;20045;-95
2023/08/04 04:41:20;;;;;;;1.10;0.60;;;;;;;14.00;100.00;100630.63;4992412;28;20023;-95
2023/08/04 04:43:45;;;;;;;4.72;1.35;;;;;;;14.05;100.00;100623.34;4991056;28;20030;-94
2023/08/04 04:46:10;;;;;;;2.72;1.30;;;;;;;14.02;100.00;100624.38;5007129;28;20109;-94
2023/08/04 04:48:36;;;;;;;2.90;1.08;;;;;;;14.16;100.00;100631.19;5006888;28;20034;-95
2023/08/04 04:51:01;;;;;;;4.85;1.10;;;;;;;14.11;100.00;100638.47;4990758;28;20058;-95
2023/08/04 04:53:27;;;;;;;2.38;1.00;;;;;;;14.04;100.00;100643.25;4990764;28;20125;-95
2023/08/04 04:55:52;;;;;;;1.73;1.33;;;;;;;14.07;100.00;100647.41;4990713;28;20037;-95
2023/08/04 04:58:17;;;;;;;2.88;1.00;;;;;;;13.96;100.00;100645.56;4990688;28;20041;-93
2023/08/04 05:00:43;;;;;;;6.13;1.00;;;;;;;13.84;100.00;100651.56;4991886;28;20033;-93
2023/08/04 05:03:10;;;;;;;2.58;0.93;;;;;;;13.87;100.00;100656.53;4991334;28;20034;-93
2023/08/04 05:05:36;;;;;;;5.03;0.82;;;;;;;13.90;100.00;100657.19;4991846;28;20026;-94
2023/08/04 05:08:02;;;;;;;2.88;1.05;;;;;;;13.98;100.00;100656.66;4990558;28;20511;-93
2023/08/04 05:10:28;;;;;;;3.17;1.33;;;;;;;14.02;100.00;100654.66;4990472;28;20039;-92
2023/08/04 05:12:53;;;;;;;1.60;0.70;;;;;;;13.99;100.00;100660.06;4993655;28;20484;-93
2023/08/04 05:15:19;;;;;;;9.80;1.23;;;;;;;13.90;100.00;100661.56;4995431;28;20033;-94
2023/08/04 05:17:44;;;;;;;2.95;0.98;;;;;;;13.95;100.00;100664.66;4993683;28;20035;-94
2023/08/04 05:20:13;;;;;;;3.70;0.88;;;;;;;13.99;100.00;100660.91;5006183;28;20053;-95
2023/08/04 05:22:43;;;;;;;1.58;0.70;;;;;;;14.02;100.00;100668.50;5014956;28;20040;-95
2023/08/04 05:25:09;;;;;;;4.55;0.82;;;;;;;14.12;100.00;100664.34;5014012;28;20033;-96
2023/08/04 05:27:34;;;;;;;1.92;0.98;;;;;;;14.16;100.00;100671.91;5020568;28;20027;-96
2023/08/04 05:30:01;;;;;;;1.13;0.75;;;;;;;14.13;100.00;100675.53;5009530;28;20034;-96
2023/08/04 05:32:27;;;;;;;1.17;0.70;;;;;;;14.09;100.00;100674.94;4998520;28;20022;-96
2023/08/04 05:34:52;;;;;;;4.40;0.73;;;;;;;14.01;100.00;100676.38;5001611;28;20029;-96
2023/08/04 05:39:59;;;;;;;2.72;1.00;;;;;;;14.14;100.00;100679.78;5265120;23;20050;-96
2023/08/04 05:42:24;;;;;;;3.60;0.95;;;;;;;14.10;100.00;100675.75;5016921;28;20025;-95
2023/08/04 05:44:50;;;;;;;3.13;1.20;;;;;;;14.20;100.00;100678.56;5014854;28;20033;-96
2023/08/04 05:47:15;;;;;;;5.05;0.93;;;;;;;14.32;100.00;100682.91;5014926;28;20101;-96
2023/08/04 05:49:40;;;;;;;3.25;1.30;;;;;;;14.30;100.00;100682.16;5013595;28;20030;-95
2023/08/04 05:52:06;;;;;;;2.90;1.10;;;;;;;14.28;100.00;100677.06;5014258;28;20499;-95
2023/08/04 05:54:32;;;;;;;3.70;1.15;;;;;;;14.29;100.00;100677.94;5013591;28;20109;-96
2023/08/04 05:56:57;;;;;;;2.95;1.10;;;;;;;14.19;100.00;100682.06;5014575;28;20036;-96
2023/08/04 05:59:22;;;;;;;2.67;0.85;;;;;;;14.25;100.00;100684.25;5013314;28;20050;-96
2023/08/04 06:01:52;;;;;;;3.70;1.00;;;;;;;14.37;100.00;100688.59;5013093;28;20034;-96
2023/08/04 06:04:18;;;;;;;3.03;0.80;;;;;;;14.37;100.00;100692.97;5014373;28;20091;-95
2023/08/04 06:06:43;;;;;;;1.63;0.70;;;;;;;14.41;100.00;100682.28;5014603;28;20445;-96
2023/08/04 06:09:08;;;;;;;2.17;0.90;;;;;;;14.52;100.00;100689.31;5007172;28;20432;-96
2023/08/04 06:11:34;;;;;;;2.65;1.00;;;;;;;14.62;100.00;100705.09;4993546;28;20030;-96
2023/08/04 06:13:59;;;;;;;2.65;0.90;;;;;;;14.73;100.00;100694.81;4993331;28;20054;-95
2023/08/04 06:16:24;;;;;;;3.15;0.98;;;;;;;14.98;99.54;100696.47;4993271;28;20114;-96
2023/08/04 06:18:50;;;;;;;4.85;1.10;;;;;;;15.01;94.54;100703.22;4993354;28;20555;-96
2023/08/04 06:21:15;;;;;;;3.80;0.80;;;;;;;15.12;92.63;100705.88;4993617;28;20026;-96
2023/08/04 06:23:45;;;;;;;2.38;0.82;;;;;;;15.24;90.54;100702.41;4994002;28;20106;-96
2023/08/04 06:26:11;;;;;;;4.80;0.88;;;;;;;15.46;90.88;100711.19;4993028;28;20054;-95
2023/08/04 06:28:36;;;;;;;2.75;1.10;;;;;;;15.69;88.17;100710.34;4994435;28;20113;-96
2023/08/04 06:31:01;;;;;;;6.53;0.95;;;;;;;15.88;86.43;100714.22;4994345;28;20034;-96
2023/08/04 06:33:27;;;;;;;1.95;0.63;;;;;;;16.01;86.49;100707.94;4993144;28;20469;-96
2023/08/04 06:35:52;;;;;;;4.32;1.08;;;;;;;16.19;84.70;100713.53;4994139;28;20042;-95
2023/08/04 06:38:18;;;;;;;6.03;0.65;;;;;;;17.02;78.85;100720.09;4992447;28;20023;-96
2023/08/04 06:40:43;;;;;;;2.88;0.88;;;;;;;16.79;77.84;100718.50;4992971;28;20484;-95
2023/08/04 06:43:08;;;;;;;2.55;0.60;;;;;;;16.64;78.89;100729.13;4992623;28;20048;-94
2023/08/04 06:45:34;;;;;;;1.30;0.70;;;;;;;20.39;65.06;100723.09;4992586;28;20027;-96
2023/08/04 06:47:59;;;;;;;4.63;1.20;;;;;;;21.84;57.58;100730.09;4992694;28;20023;-95
2023/08/04 06:50:25;;;;;;;3.75;0.90;;;;;;;19.99;59.65;100736.47;4993698;28;20026;-94
2023/08/04 06:52:50;;;;;;;5.65;0.80;;;;;;;19.60;61.29;100739.94;5009654;28;20049;-95
2023/08/04 06:55:15;;;;;;;1.30;0.63;;;;;;;18.43;66.19;100738.91;4992823;28;20365;-96
2023/08/04 06:57:41;;;;;;;1.85;0.63;;;;;;;17.58;69.77;100729.50;4992109;28;20081;-95
2023/08/04 07:00:09;;;;;;;2.72;0.73;;;;;;;17.50;71.20;100732.72;4993798;28;20026;-94
2023/08/04 07:02:34;;;;;;;3.65;0.75;;;;;;;17.33;70.56;100739.31;4993492;28;20076;-95
2023/08/04 07:05:00;;;;;;;2.72;0.70;;;;;;;17.33;73.35;100741.09;4993494;28;20427;-95
2023/08/04 07:07:25;;;;;;;3.42;0.50;;;;;;;17.07;74.65;100732.78;4993616;28;20037;-95
2023/08/04 07:09:50;;;;;;;2.75;0.47;;;;;;;16.97;73.72;100737.06;4992398;28;20481;-96
2023/08/04 07:12:16;;;;;;;2.38;0.50;;;;;;;16.87;74.62;100742.16;4993691;28;20030;-96
2023/08/04 07:14:42;;;;;;;2.20;0.47;;;;;;;16.67;75.15;100752.34;4992091;28;20061;-95
2023/08/04 07:17:07;;;;;;;2.95;0.57;;;;;;;16.66;74.75;100755.91;4992202;28;20026;-95
2023/08/04 07:19:32;;;;;;;2.58;0.50;;;;;;;16.56;74.10;100760.19;4992435;28;20076;-96
2023/08/04 07:21:58;;;;;;;1.77;0.60;;;;;;;16.54;74.07;100756.88;4992370;28;20493;-94
2023/08/04 07:24:23;;;;;;;2.30;0.50;;;;;;;16.41;75.23;100762.22;5000150;28;20172;-96
2023/08/04 07:26:48;;;;;;;0.90;0.25;;;;;;;16.30;75.56;100772.59;5011421;28;20046;-95
2023/08/04 07:29:14;;;;;;;2.28;0.70;;;;;;;16.36;77.32;100773.91;5008361;28;20028;-96
2023/08/04 07:31:39;;;;;;;1.52;0.40;;;;;;;16.45;75.39;100762.78;5006581;28;20037;-94
2023/08/04 07:34:05;;;;;;;0.73;0.30;;;;;;;16.34;77.09;100775.78;5011764;28;20567;-96
2023/08/04 07:36:30;;;;;;;1.90;0.65;;;;;;;16.50;76.16;100771.06;5011587;28;20030;-95
2023/08/04 07:38:55;;;;;;;1.65;0.52;;;;;;;16.58;77.25;100775.69;5008158;28;20137;-95
2023/08/04 07:41:24;;;;;;;4.72;0.95;;;;;;;16.71;76.77;100784.22;5012563;28;20026;-95
2023/08/04 07:43:50;;;;;;;1.95;0.70;;;;;;;16.84;76.45;100778.91;5010940;28;20033;-96
2023/08/04 07:46:39;;;;;;;2.85;0.82;;;;;;;16.87;76.79;100778.66;5009829;28;20029;-96
2023/08/04 07:49:04;;;;;;;2.42;0.68;;;;;;;17.16;76.53;100788.59;5007439;28;20034;-96
2023/08/04 07:51:29;;;;;;;2.90;0.70;;;;;;;16.85;77.04;100791.00;5010866;28;20044;-96
2023/08/04 07:53:55;;;;;;;3.00;0.95;;;;;;;16.82;76.96;100791.25;5005200;28;20499;-96
2023/08/04 07:56:21;;;;;;;7.05;0.68;;;;;;;16.76;77.02;100796.91;5001458;28;20028;-96
2023/08/04 07:58:48;;;;;;;1.17;0.52;;;;;;;16.76;77.02;100797.72;4996306;28;20038;-96
2023/08/04 08:01:13;;;;;;;4.65;0.70;;;;;;;16.77;77.65;100803.78;5012354;28;20025;-96
2023/08/04 08:03:41;;;;;;;4.63;0.63;;;;;;;16.75;77.22;100805.66;5012095;28;20815;-96
2023/08/04 08:06:07;;;;;;;4.38;0.93;;;;;;;16.86;78.26;100808.31;5014554;28;20026;-96
2023/08/04 08:08:32;;;;;;;3.72;0.80;;;;;;;16.67;76.24;100814.09;5012566;28;20048;-96
2023/08/04 08:10:58;;;;;;;3.45;0.85;;;;;;;16.67;76.69;100808.88;4992694;28;20159;-96
2023/08/04 08:13:24;;;;;;;5.68;0.85;;;;;;;16.90;75.64;100825.38;5010448;28;20499;-96
2023/08/04 08:15:49;;;;;;;2.13;0.47;;;;;;;16.73;75.88;100813.63;5010874;28;20026;-96
2023/08/04 08:18:15;;;;;;;1.80;0.63;;;;;;;16.62;76.99;100826.63;5010504;28;20034;-95
2023/08/04 08:20:41;;;;;;;5.50;0.57;;;;;;;16.55;78.82;100825.44;5017362;28;20373;-95
2023/08/04 08:23:07;;;;;;;5.28;0.60;;;;;;;16.42;78.34;100820.34;5030103;28;20101;-96
2023/08/04 08:25:34;;;;;;;2.85;0.80;;;;;;;16.39;79.38;100823.19;4991262;28;20022;-96
2023/08/04 08:28:00;;;;;;;3.10;0.70;;;;;;;16.32;77.98;100825.41;5007867;28;20034;-96
2023/08/04 08:30:25;;;;;;;2.80;0.60;;;;;;;16.42;77.82;100825.56;5012258;28;20037;-96
2023/08/04 08:32:50;;;;;;;5.20;0.88;;;;;;;16.50;77.94;100830.19;5013330;28;20014;-96
2023/08/04 08:35:16;;;;;;;2.58;0.60;;;;;;;16.55;77.73;100830.66;5018115;28;20103;-96
2023/08/04 08:37:41;;;;;;;2.00;0.55;;;;;;;16.58;76.42;100828.66;5017085;28;20030;-96
2023/08/04 08:40:10;;;;;;;1.90;0.40;;;;;;;16.71;75.83;100833.75;5018515;28;20030;-96
2023/08/04 08:42:35;;;;;;;0.88;0.40;;;;;;;16.77;75.44;100829.84;5024009;28;20030;-96
2023/08/04 08:45:05;;;;;;;1.90;0.60;;;;;;;16.85;75.32;100838.78;5026741;28;20076;-96
2023/08/04 08:47:44;;;;;;;4.65;0.90;;;;;;;16.92;73.13;100827.84;5031370;28;20014;-96
2023/08/04 08:50:11;;;;;;;3.63;0.43;;;;;;;17.10;73.57;100829.84;5032148;28;20101;-96
2023/08/04 08:52:39;;;;;;;1.50;0.50;;;;;;;17.18;70.94;100824.03;5027628;28;20539;-96
2023/08/04 08:55:08;;;;;;;1.88;0.45;;;;;;;17.08;70.72;100826.53;5028977;28;20034;-96
2023/08/04 08:57:34;;;;;;;1.55;0.55;;;;;;;17.17;70.64;100837.19;5034073;28;20030;-96
2023/08/04 09:00:02;;;;;;;2.47;0.45;;;;;;;17.15;69.31;100839.94;5030723;28;20026;-96
2023/08/04 09:02:28;;;;;;;1.65;0.32;;;;;;;17.40;70.23;100833.59;5029652;28;20025;-96
2023/08/04 09:04:54;;;;;;;3.55;0.40;;;;;;;17.67;69.37;100840.16;5030800;28;20088;-96
2023/08/04 09:07:22;;;;;;;2.00;0.57;;;;;;;17.94;68.30;100837.91;5027167;28;20026;-96
2023/08/04 09:09:48;;;;;;;1.55;0.50;;;;;;;18.43;65.30;100833.00;5024147;28;20041;-96
2023/08/04 09:12:15;;;;;;;2.95;0.30;;;;;;;19.21;63.15;100839.41;5025981;28;20026;-96
2023/08/04 09:14:51;;;;;;;0.93;0.40;;;;;;;19.85;61.59;100837.31;5017896;28;20018;-96
2023/08/04 09:17:44;;;;;;;0.90;0.45;;;;;;;19.79;60.13;100849.16;5031330;28;20030;-96
2023/08/04 09:20:26;;;;;;;2.15;0.25;;;;;;;19.21;62.35;100839.41;5026078;28;20503;-96
2023/08/04 09:22:51;;;;;;;0.52;0.20;;;;;;;18.73;62.34;100850.50;5022370;28;20080;-96
2023/08/04 09:25:16;;;;;;;1.52;0.47;;;;;;;18.57;63.86;100844.94;5024432;28;20030;-96
2023/08/04 09:27:49;;;;;;;1.58;0.40;;;;;;;18.46;63.87;100852.84;5022708;28;20037;-96
2023/08/04 09:30:15;;;;;;;1.02;0.22;;;;;;;18.47;64.26;100838.81;5008621;28;20149;-96
2023/08/04 09:32:52;;;;;;;2.22;0.40;;;;;;;18.39;63.91;100842.91;5008909;28;20022;-96
2023/08/04 09:35:17;;;;;;;5.57;1.17;;;;;;;18.20;63.53;100848.00;5013645;28;20031;-96
2023/08/04 09:37:43;;;;;;;1.52;0.38;;;;;;;18.21;64.44;100851.44;5002141;28;20038;-96
2023/08/04 09:40:20;;;;;;;7.47;0.30;;;;;;;18.54;64.02;100846.00;5000906;28;20034;-96
2023/08/04 09:42:47;;;;;;;1.40;0.28;;;;;;;18.19;63.10;100841.13;5003775;28;20544;-96
2023/08/04 09:45:14;;;;;;;1.45;0.40;;;;;;;18.37;62.62;100852.66;5002236;28;20041;-96
2023/08/04 09:47:45;;;;;;;1.25;0.30;;;;;;;18.47;63.34;100849.28;5000057;28;20440;-96
2023/08/04 09:50:10;;;;;;;1.00;0.50;;;;;;;18.50;63.58;100843.78;5002943;28;20022;-96
2023/08/04 09:52:36;;;;;;;1.70;0.22;;;;;;;18.59;63.70;100848.25;5003806;28;20027;-96
2023/08/04 09:55:02;;;;;;;0.40;0.30;;;;;;;18.62;62.54;100855.81;5021849;28;20037;-96
2023/08/04 09:57:28;;;;;;;0.60;0.17;;;;;;;18.70;61.63;100848.13;5005972;28;20026;-96
2023/08/04 09:59:53;;;;;;;1.50;0.20;;;;;;;18.67;62.38;100845.78;5023279;28;20026;-96
2023/08/04 10:02:19;;;;;;;1.17;0.38;;;;;;;18.77;60.93;100845.88;5024093;28;20037;-96
2023/08/04 10:04:50;;;;;;;0.35;0.20;;;;;;;18.74;61.37;100848.72;5022267;28;20029;-96
2023/08/04 10:07:17;;;;;;;0.70;0.60;;;;;;;18.53;60.72;100867.03;5022381;28;20022;-96
2023/08/04 10:09:44;;;;;;;0.30;0.20;;;;;;;18.52;62.11;100854.94;5015818;28;20018;-96
2023/08/04 10:12:12;;;;;;;0.63;0.15;;;;;;;18.66;63.30;100870.28;5016211;28;20030;-96
2023/08/04 10:14:37;;;;;;;0.70;0.30;;;;;;;18.47;62.34;100865.78;5005979;28;20018;-96
2023/08/04 10:17:03;;;;;;;0.88;0.20;;;;;;;18.47;62.32;100872.81;4999643;28;20363;-96
2023/08/04 10:19:29;;;;;;;0.32;0.20;;;;;;;18.38;62.53;100861.31;5000617;28;20042;-96
2023/08/04 10:22:03;;;;;;;0.60;0.30;;;;;;;18.01;63.51;100874.00;4999922;28;20031;-96
2023/08/04 10:24:29;;;;;;;0.82;0.30;;;;;;;18.17;63.52;100866.56;4998691;28;20022;-96
2023/08/04 10:26:54;;;;;;;1.38;0.28;;;;;;;18.10;63.04;100862.81;4998828;28;20046;-96
2023/08/04 10:29:29;;;;;;;0.10;0.10;;;;;;;18.32;62.62;100867.06;5010203;28;20080;-96
2023/08/04 10:31:59;;;;;;;1.02;0.38;;;;;;;18.41;62.64;100874.16;5019373;28;20116;-96
2023/08/04 10:34:33;;;;;;;0.43;0.30;;;;;;;18.36;63.76;100879.75;5019306;28;20033;-96
2023/08/04 10:37:10;;;;;;;0.93;0.30;;;;;;;18.44;62.81;100886.13;5019225;28;20030;-96
2023/08/04 10:39:41;;;;;;;0.22;0.10;;;;;;;18.61;61.01;100883.75;5017146;28;20042;-96
2023/08/04 10:42:12;;;;;;;1.20;0.32;;;;;;;18.47;61.54;100870.19;5018493;28;20500;-96
2023/08/04 10:44:53;;;;;;;3.53;0.30;;;;;;;18.62;61.23;100866.28;5018133;28;20038;-96
2023/08/04 10:47:39;;;;;;;1.20;0.50;;;;;;;18.77;61.16;100869.41;5018418;28;20021;-96
2023/08/04 10:50:05;;;;;;;1.15;0.20;;;;;;;18.99;60.46;100884.09;5018910;28;20383;-96
2023/08/04 10:52:32;;;;;;;0.55;0.30;;;;;;;19.21;59.15;100876.03;5018817;28;20028;-96
2023/08/04 10:54:58;;;;;;;0.70;0.30;;;;;;;19.44;58.67;100870.59;5017354;28;20110;-96
2023/08/04 10:57:31;;;;;;;0.95;0.30;;;;;;;19.51;58.64;100868.25;5005527;28;20054;-96
2023/08/04 10:59:57;;;;;;;1.20;0.50;;;;;;;19.58;58.58;100864.97;5004399;28;20022;-96
2023/08/04 11:02:24;;;;;;;0.93;0.25;;;;;;;19.78;58.06;100873.69;5005235;28;20146;-96
2023/08/04 11:04:53;;;;;;;3.22;0.22;;;;;;;19.96;57.17;100871.22;5000008;28;20034;-96
2023/08/04 11:07:21;;;;;;;0.73;0.28;;;;;;;20.01;57.39;100874.22;5001213;28;20121;-96
2023/08/04 11:09:47;;;;;;;2.90;0.30;;;;;;;19.76;57.96;100869.56;5021473;28;20030;-96
2023/08/04 11:12:14;;;;;;;2.30;0.20;;;;;;;19.65;56.48;100868.69;4999567;28;20034;-96
2023/08/04 11:14:41;;;;;;;0.50;0.30;;;;;;;19.47;58.22;100862.47;4999962;28;20090;-96
2023/08/04 11:17:14;;;;;;;0.50;0.30;;;;;;;19.34;57.96;100867.13;4999939;28;20033;-96
2023/08/04 11:19:43;;;;;;;1.58;0.25;;;;;;;19.56;59.00;100872.13;4998257;28;20023;-96
2023/08/04 11:22:11;;;;;;;0.73;0.20;;;;;;;19.49;58.23;100884.09;4996792;28;20090;-96